Main page
Satellite images Climate Cyclones Lightning AirportsFAQ Languages Contact Newsletter About
Weather : Europe Africa North America South America Asia Australia-Oceania Others

4201, Vientiane, Wattay International Airport

48940

latitude: , longitude: Laos, elevation: 17-57N m


METAR: VLVT 200130Z 00000KT 9999 FEW016 BKN200 31/26 Q1010 NOSIG